sensor_id;sensor_type;location;lat;lon;timestamp;P1;durP1;ratioP1;P2;durP2;ratioP2
19969;SDS011;10146;47.754;9.566;2023-12-20T00:00:24;5.43;;;4.57;;
19969;SDS011;10146;47.754;9.566;2023-12-20T00:02:50;5.70;;;5.13;;
19969;SDS011;10146;47.754;9.566;2023-12-20T00:05:16;5.53;;;5.03;;
19969;SDS011;10146;47.754;9.566;2023-12-20T00:07:43;5.13;;;4.63;;
19969;SDS011;10146;47.754;9.566;2023-12-20T00:10:09;5.40;;;4.90;;
19969;SDS011;10146;47.754;9.566;2023-12-20T00:12:35;5.50;;;4.90;;
19969;SDS011;10146;47.754;9.566;2023-12-20T00:15:00;5.32;;;4.57;;
19969;SDS011;10146;47.754;9.566;2023-12-20T00:17:26;4.88;;;4.38;;
19969;SDS011;10146;47.754;9.566;2023-12-20T00:19:52;4.85;;;4.00;;
19969;SDS011;10146;47.754;9.566;2023-12-20T00:22:17;4.03;;;3.63;;
19969;SDS011;10146;47.754;9.566;2023-12-20T00:24:43;3.92;;;3.53;;
19969;SDS011;10146;47.754;9.566;2023-12-20T00:27:08;5.00;;;4.20;;
19969;SDS011;10146;47.754;9.566;2023-12-20T00:29:34;4.63;;;3.92;;
19969;SDS011;10146;47.754;9.566;2023-12-20T00:31:59;4.07;;;3.67;;
19969;SDS011;10146;47.754;9.566;2023-12-20T00:34:25;4.10;;;3.75;;
19969;SDS011;10146;47.754;9.566;2023-12-20T00:36:50;3.88;;;3.58;;
19969;SDS011;10146;47.754;9.566;2023-12-20T00:39:16;4.10;;;3.80;;
19969;SDS011;10146;47.754;9.566;2023-12-20T00:41:42;4.00;;;3.60;;
19969;SDS011;10146;47.754;9.566;2023-12-20T00:44:07;4.53;;;3.97;;
19969;SDS011;10146;47.754;9.566;2023-12-20T00:46:33;4.78;;;4.03;;
19969;SDS011;10146;47.754;9.566;2023-12-20T00:48:58;4.35;;;3.95;;
19969;SDS011;10146;47.754;9.566;2023-12-20T00:51:24;4.78;;;4.28;;
19969;SDS011;10146;47.754;9.566;2023-12-20T00:53:50;4.45;;;4.05;;
19969;SDS011;10146;47.754;9.566;2023-12-20T00:56:19;4.07;;;3.63;;
19969;SDS011;10146;47.754;9.566;2023-12-20T00:58:45;4.85;;;4.13;;
19969;SDS011;10146;47.754;9.566;2023-12-20T01:01:11;4.60;;;3.97;;
19969;SDS011;10146;47.754;9.566;2023-12-20T01:03:36;4.90;;;4.40;;
19969;SDS011;10146;47.754;9.566;2023-12-20T01:06:02;4.03;;;3.63;;
19969;SDS011;10146;47.754;9.566;2023-12-20T01:08:29;4.47;;;4.07;;
19969;SDS011;10146;47.754;9.566;2023-12-20T01:10:55;4.50;;;4.03;;
19969;SDS011;10146;47.754;9.566;2023-12-20T01:13:20;3.85;;;3.53;;
19969;SDS011;10146;47.754;9.566;2023-12-20T01:15:46;4.07;;;3.67;;
19969;SDS011;10146;47.754;9.566;2023-12-20T01:18:13;5.45;;;4.30;;
19969;SDS011;10146;47.754;9.566;2023-12-20T01:20:38;4.30;;;3.80;;
19969;SDS011;10146;47.754;9.566;2023-12-20T01:23:04;4.68;;;4.20;;
19969;SDS011;10146;47.754;9.566;2023-12-20T01:25:29;4.18;;;3.70;;
19969;SDS011;10146;47.754;9.566;2023-12-20T01:27:55;4.10;;;3.70;;
19969;SDS011;10146;47.754;9.566;2023-12-20T01:30:20;4.15;;;3.75;;
19969;SDS011;10146;47.754;9.566;2023-12-20T01:32:46;4.13;;;3.72;;
19969;SDS011;10146;47.754;9.566;2023-12-20T01:35:12;4.53;;;3.88;;
19969;SDS011;10146;47.754;9.566;2023-12-20T01:37:38;5.05;;;4.55;;
19969;SDS011;10146;47.754;9.566;2023-12-20T01:40:04;4.20;;;3.80;;
19969;SDS011;10146;47.754;9.566;2023-12-20T01:42:30;4.40;;;4.00;;
19969;SDS011;10146;47.754;9.566;2023-12-20T01:44:55;4.97;;;4.47;;
19969;SDS011;10146;47.754;9.566;2023-12-20T01:47:21;4.40;;;4.00;;
19969;SDS011;10146;47.754;9.566;2023-12-20T01:49:47;4.15;;;3.75;;
19969;SDS011;10146;47.754;9.566;2023-12-20T01:52:13;4.30;;;3.70;;
19969;SDS011;10146;47.754;9.566;2023-12-20T01:54:39;4.30;;;3.90;;
19969;SDS011;10146;47.754;9.566;2023-12-20T01:57:06;4.43;;;4.03;;
19969;SDS011;10146;47.754;9.566;2023-12-20T01:59:33;4.63;;;4.22;;
19969;SDS011;10146;47.754;9.566;2023-12-20T02:02:00;4.72;;;4.00;;
19969;SDS011;10146;47.754;9.566;2023-12-20T02:04:25;4.45;;;4.05;;
19969;SDS011;10146;47.754;9.566;2023-12-20T02:06:52;4.43;;;3.90;;
19969;SDS011;10146;47.754;9.566;2023-12-20T02:09:17;6.30;;;4.55;;
19969;SDS011;10146;47.754;9.566;2023-12-20T02:11:49;4.68;;;4.25;;
19969;SDS011;10146;47.754;9.566;2023-12-20T02:14:14;4.43;;;4.03;;
19969;SDS011;10146;47.754;9.566;2023-12-20T02:16:40;5.00;;;4.22;;
19969;SDS011;10146;47.754;9.566;2023-12-20T02:19:07;4.70;;;4.30;;
19969;SDS011;10146;47.754;9.566;2023-12-20T02:21:38;5.10;;;4.60;;
19969;SDS011;10146;47.754;9.566;2023-12-20T02:24:03;5.30;;;4.80;;
19969;SDS011;10146;47.754;9.566;2023-12-20T02:26:32;5.38;;;4.25;;
19969;SDS011;10146;47.754;9.566;2023-12-20T02:28:58;5.60;;;4.90;;
19969;SDS011;10146;47.754;9.566;2023-12-20T02:31:25;6.65;;;4.65;;
19969;SDS011;10146;47.754;9.566;2023-12-20T02:33:50;4.97;;;4.28;;
19969;SDS011;10146;47.754;9.566;2023-12-20T02:36:16;5.28;;;4.70;;
19969;SDS011;10146;47.754;9.566;2023-12-20T02:38:41;5.63;;;5.00;;
19969;SDS011;10146;47.754;9.566;2023-12-20T02:41:07;6.45;;;5.05;;
19969;SDS011;10146;47.754;9.566;2023-12-20T02:43:32;6.18;;;5.38;;
19969;SDS011;10146;47.754;9.566;2023-12-20T02:45:58;5.28;;;4.78;;
19969;SDS011;10146;47.754;9.566;2023-12-20T02:48:24;7.18;;;5.57;;
19969;SDS011;10146;47.754;9.566;2023-12-20T02:50:49;7.43;;;5.57;;
19969;SDS011;10146;47.754;9.566;2023-12-20T02:53:16;7.10;;;5.90;;
19969;SDS011;10146;47.754;9.566;2023-12-20T02:55:41;7.47;;;6.30;;
19969;SDS011;10146;47.754;9.566;2023-12-20T02:58:07;6.63;;;6.03;;
19969;SDS011;10146;47.754;9.566;2023-12-20T03:00:32;8.48;;;6.82;;
19969;SDS011;10146;47.754;9.566;2023-12-20T03:02:58;7.43;;;6.72;;
19969;SDS011;10146;47.754;9.566;2023-12-20T03:05:24;8.15;;;7.35;;
19969;SDS011;10146;47.754;9.566;2023-12-20T03:07:52;9.07;;;7.30;;
19969;SDS011;10146;47.754;9.566;2023-12-20T03:10:18;9.73;;;8.18;;
19969;SDS011;10146;47.754;9.566;2023-12-20T03:12:44;8.43;;;7.53;;
19969;SDS011;10146;47.754;9.566;2023-12-20T03:15:10;8.85;;;7.72;;
19969;SDS011;10146;47.754;9.566;2023-12-20T03:17:35;10.07;;;8.25;;
19969;SDS011;10146;47.754;9.566;2023-12-20T03:20:01;9.55;;;8.15;;
19969;SDS011;10146;47.754;9.566;2023-12-20T03:22:27;9.02;;;8.00;;
19969;SDS011;10146;47.754;9.566;2023-12-20T03:24:52;9.00;;;8.07;;
19969;SDS011;10146;47.754;9.566;2023-12-20T03:27:18;9.30;;;8.40;;
19969;SDS011;10146;47.754;9.566;2023-12-20T03:29:44;9.32;;;8.00;;
19969;SDS011;10146;47.754;9.566;2023-12-20T03:32:09;9.73;;;8.73;;
19969;SDS011;10146;47.754;9.566;2023-12-20T03:34:35;9.63;;;8.63;;
19969;SDS011;10146;47.754;9.566;2023-12-20T03:37:00;10.27;;;8.60;;
19969;SDS011;10146;47.754;9.566;2023-12-20T03:39:26;10.60;;;8.88;;
19969;SDS011;10146;47.754;9.566;2023-12-20T03:41:52;9.68;;;8.57;;
19969;SDS011;10146;47.754;9.566;2023-12-20T03:44:17;11.13;;;8.68;;
19969;SDS011;10146;47.754;9.566;2023-12-20T03:46:43;9.15;;;7.97;;
19969;SDS011;10146;47.754;9.566;2023-12-20T03:49:10;11.57;;;8.30;;
19969;SDS011;10146;47.754;9.566;2023-12-20T03:51:36;10.10;;;9.07;;
19969;SDS011;10146;47.754;9.566;2023-12-20T03:54:02;9.65;;;8.50;;
19969;SDS011;10146;47.754;9.566;2023-12-20T03:56:28;9.07;;;8.10;;
19969;SDS011;10146;47.754;9.566;2023-12-20T03:58:53;8.80;;;7.88;;
19969;SDS011;10146;47.754;9.566;2023-12-20T04:01:19;12.60;;;8.60;;
19969;SDS011;10146;47.754;9.566;2023-12-20T04:03:44;10.32;;;9.05;;
19969;SDS011;10146;47.754;9.566;2023-12-20T04:06:10;9.82;;;8.55;;
19969;SDS011;10146;47.754;9.566;2023-12-20T04:08:41;11.93;;;9.35;;
19969;SDS011;10146;47.754;9.566;2023-12-20T04:11:06;11.10;;;9.63;;
19969;SDS011;10146;47.754;9.566;2023-12-20T04:13:32;10.23;;;8.73;;
19969;SDS011;10146;47.754;9.566;2023-12-20T04:15:57;11.35;;;9.10;;
19969;SDS011;10146;47.754;9.566;2023-12-20T04:18:23;12.65;;;10.18;;
19969;SDS011;10146;47.754;9.566;2023-12-20T04:20:48;10.73;;;8.63;;
19969;SDS011;10146;47.754;9.566;2023-12-20T04:23:14;10.23;;;9.13;;
19969;SDS011;10146;47.754;9.566;2023-12-20T04:25:40;13.40;;;9.98;;
19969;SDS011;10146;47.754;9.566;2023-12-20T04:28:06;11.85;;;9.15;;
19969;SDS011;10146;47.754;9.566;2023-12-20T04:30:31;10.90;;;9.30;;
19969;SDS011;10146;47.754;9.566;2023-12-20T04:32:57;11.00;;;9.55;;
19969;SDS011;10146;47.754;9.566;2023-12-20T04:35:22;12.10;;;10.38;;
19969;SDS011;10146;47.754;9.566;2023-12-20T04:37:48;12.95;;;9.75;;
19969;SDS011;10146;47.754;9.566;2023-12-20T04:40:14;12.73;;;10.38;;
19969;SDS011;10146;47.754;9.566;2023-12-20T04:42:40;12.05;;;10.00;;
19969;SDS011;10146;47.754;9.566;2023-12-20T04:45:06;11.82;;;10.40;;
19969;SDS011;10146;47.754;9.566;2023-12-20T04:47:32;12.02;;;10.73;;
19969;SDS011;10146;47.754;9.566;2023-12-20T04:49:57;13.85;;;10.98;;
19969;SDS011;10146;47.754;9.566;2023-12-20T04:52:23;12.57;;;10.80;;
19969;SDS011;10146;47.754;9.566;2023-12-20T04:54:50;14.10;;;11.57;;
19969;SDS011;10146;47.754;9.566;2023-12-20T04:57:15;14.85;;;12.60;;
19969;SDS011;10146;47.754;9.566;2023-12-20T04:59:41;15.13;;;13.23;;
19969;SDS011;10146;47.754;9.566;2023-12-20T05:02:06;15.70;;;12.80;;
19969;SDS011;10146;47.754;9.566;2023-12-20T05:04:32;15.75;;;13.50;;
19969;SDS011;10146;47.754;9.566;2023-12-20T05:06:58;15.85;;;13.45;;
19969;SDS011;10146;47.754;9.566;2023-12-20T05:09:23;15.13;;;13.18;;
19969;SDS011;10146;47.754;9.566;2023-12-20T05:11:52;17.02;;;14.07;;
19969;SDS011;10146;47.754;9.566;2023-12-20T05:14:17;16.60;;;12.98;;
19969;SDS011;10146;47.754;9.566;2023-12-20T05:16:43;16.55;;;14.18;;
19969;SDS011;10146;47.754;9.566;2023-12-20T05:19:08;17.20;;;13.77;;
19969;SDS011;10146;47.754;9.566;2023-12-20T05:21:34;18.52;;;14.68;;
19969;SDS011;10146;47.754;9.566;2023-12-20T05:24:00;16.55;;;14.15;;
19969;SDS011;10146;47.754;9.566;2023-12-20T05:26:26;17.13;;;14.38;;
19969;SDS011;10146;47.754;9.566;2023-12-20T05:28:51;16.48;;;13.57;;
19969;SDS011;10146;47.754;9.566;2023-12-20T05:31:17;16.98;;;14.10;;
19969;SDS011;10146;47.754;9.566;2023-12-20T05:33:43;16.08;;;13.60;;
19969;SDS011;10146;47.754;9.566;2023-12-20T05:36:08;15.98;;;13.40;;
19969;SDS011;10146;47.754;9.566;2023-12-20T05:38:36;18.35;;;13.70;;
19969;SDS011;10146;47.754;9.566;2023-12-20T05:41:02;16.73;;;12.98;;
19969;SDS011;10146;47.754;9.566;2023-12-20T05:43:28;15.10;;;13.15;;
19969;SDS011;10146;47.754;9.566;2023-12-20T05:45:54;17.52;;;14.10;;
19969;SDS011;10146;47.754;9.566;2023-12-20T05:48:19;17.02;;;13.63;;
19969;SDS011;10146;47.754;9.566;2023-12-20T05:50:45;15.73;;;12.85;;
19969;SDS011;10146;47.754;9.566;2023-12-20T05:53:10;14.82;;;13.10;;
19969;SDS011;10146;47.754;9.566;2023-12-20T05:55:36;15.05;;;13.18;;
19969;SDS011;10146;47.754;9.566;2023-12-20T05:58:02;15.15;;;12.82;;
19969;SDS011;10146;47.754;9.566;2023-12-20T06:00:28;14.85;;;12.23;;
19969;SDS011;10146;47.754;9.566;2023-12-20T06:02:53;13.30;;;11.90;;
19969;SDS011;10146;47.754;9.566;2023-12-20T06:05:19;13.20;;;11.73;;
19969;SDS011;10146;47.754;9.566;2023-12-20T06:07:45;14.52;;;12.15;;
19969;SDS011;10146;47.754;9.566;2023-12-20T06:10:13;12.45;;;10.77;;
19969;SDS011;10146;47.754;9.566;2023-12-20T06:12:38;13.07;;;11.68;;
19969;SDS011;10146;47.754;9.566;2023-12-20T06:15:04;13.00;;;11.43;;
19969;SDS011;10146;47.754;9.566;2023-12-20T06:17:30;12.93;;;11.10;;
19969;SDS011;10146;47.754;9.566;2023-12-20T06:19:57;13.48;;;11.20;;
19969;SDS011;10146;47.754;9.566;2023-12-20T06:22:22;13.50;;;11.35;;
19969;SDS011;10146;47.754;9.566;2023-12-20T06:24:48;13.50;;;11.35;;
19969;SDS011;10146;47.754;9.566;2023-12-20T06:27:13;13.18;;;11.13;;
19969;SDS011;10146;47.754;9.566;2023-12-20T06:29:39;11.95;;;10.60;;
19969;SDS011;10146;47.754;9.566;2023-12-20T06:32:06;14.38;;;11.15;;
19969;SDS011;10146;47.754;9.566;2023-12-20T06:34:31;14.15;;;11.30;;
19969;SDS011;10146;47.754;9.566;2023-12-20T06:36:57;13.02;;;10.85;;
19969;SDS011;10146;47.754;9.566;2023-12-20T06:39:23;11.75;;;10.43;;
19969;SDS011;10146;47.754;9.566;2023-12-20T06:41:48;13.45;;;11.10;;
19969;SDS011;10146;47.754;9.566;2023-12-20T06:44:14;14.93;;;12.60;;
19969;SDS011;10146;47.754;9.566;2023-12-20T06:46:40;11.20;;;10.00;;
19969;SDS011;10146;47.754;9.566;2023-12-20T06:49:05;12.98;;;11.35;;
19969;SDS011;10146;47.754;9.566;2023-12-20T06:51:31;12.20;;;10.98;;
19969;SDS011;10146;47.754;9.566;2023-12-20T06:53:56;12.32;;;11.00;;
19969;SDS011;10146;47.754;9.566;2023-12-20T06:56:22;12.50;;;10.93;;
19969;SDS011;10146;47.754;9.566;2023-12-20T06:58:48;11.95;;;10.75;;
19969;SDS011;10146;47.754;9.566;2023-12-20T07:01:14;11.43;;;10.23;;
19969;SDS011;10146;47.754;9.566;2023-12-20T07:03:41;11.23;;;10.00;;
19969;SDS011;10146;47.754;9.566;2023-12-20T07:06:07;10.52;;;9.43;;
19969;SDS011;10146;47.754;9.566;2023-12-20T07:08:33;10.63;;;9.52;;
19969;SDS011;10146;47.754;9.566;2023-12-20T07:10:59;10.32;;;9.00;;
19969;SDS011;10146;47.754;9.566;2023-12-20T07:13:25;10.73;;;9.60;;
19969;SDS011;10146;47.754;9.566;2023-12-20T07:15:50;12.05;;;8.90;;
19969;SDS011;10146;47.754;9.566;2023-12-20T07:18:16;8.70;;;7.85;;
19969;SDS011;10146;47.754;9.566;2023-12-20T07:20:41;9.88;;;8.65;;
19969;SDS011;10146;47.754;9.566;2023-12-20T07:23:08;10.02;;;8.95;;
19969;SDS011;10146;47.754;9.566;2023-12-20T07:25:33;11.60;;;9.77;;
19969;SDS011;10146;47.754;9.566;2023-12-20T07:27:59;12.25;;;9.32;;
19969;SDS011;10146;47.754;9.566;2023-12-20T07:30:25;10.48;;;8.73;;
19969;SDS011;10146;47.754;9.566;2023-12-20T07:32:50;8.98;;;8.07;;
19969;SDS011;10146;47.754;9.566;2023-12-20T07:35:17;10.32;;;9.02;;
19969;SDS011;10146;47.754;9.566;2023-12-20T07:37:43;9.68;;;8.02;;
19969;SDS011;10146;47.754;9.566;2023-12-20T07:40:09;9.75;;;8.75;;
19969;SDS011;10146;47.754;9.566;2023-12-20T07:42:35;10.68;;;9.52;;
19969;SDS011;10146;47.754;9.566;2023-12-20T07:45:01;11.60;;;8.90;;
19969;SDS011;10146;47.754;9.566;2023-12-20T07:47:26;11.80;;;9.63;;
19969;SDS011;10146;47.754;9.566;2023-12-20T07:49:52;10.32;;;9.23;;
19969;SDS011;10146;47.754;9.566;2023-12-20T07:52:18;12.18;;;9.95;;
19969;SDS011;10146;47.754;9.566;2023-12-20T07:54:44;11.30;;;10.10;;
19969;SDS011;10146;47.754;9.566;2023-12-20T07:57:10;12.52;;;10.75;;
19969;SDS011;10146;47.754;9.566;2023-12-20T07:59:36;13.00;;;11.60;;
19969;SDS011;10146;47.754;9.566;2023-12-20T08:02:02;14.13;;;11.60;;
19969;SDS011;10146;47.754;9.566;2023-12-20T08:04:29;13.40;;;11.55;;
19969;SDS011;10146;47.754;9.566;2023-12-20T08:06:54;13.85;;;11.95;;
19969;SDS011;10146;47.754;9.566;2023-12-20T08:09:20;14.52;;;12.23;;
19969;SDS011;10146;47.754;9.566;2023-12-20T08:11:46;14.48;;;12.45;;
19969;SDS011;10146;47.754;9.566;2023-12-20T08:14:12;14.13;;;12.70;;
19969;SDS011;10146;47.754;9.566;2023-12-20T08:16:38;14.95;;;12.80;;
19969;SDS011;10146;47.754;9.566;2023-12-20T08:19:04;14.70;;;12.85;;
19969;SDS011;10146;47.754;9.566;2023-12-20T08:21:29;14.18;;;12.68;;
19969;SDS011;10146;47.754;9.566;2023-12-20T08:23:55;13.93;;;12.23;;
19969;SDS011;10146;47.754;9.566;2023-12-20T08:26:24;15.68;;;12.85;;
19969;SDS011;10146;47.754;9.566;2023-12-20T08:28:50;14.60;;;12.60;;
19969;SDS011;10146;47.754;9.566;2023-12-20T08:31:16;14.20;;;12.50;;
19969;SDS011;10146;47.754;9.566;2023-12-20T08:33:45;14.73;;;13.23;;
19969;SDS011;10146;47.754;9.566;2023-12-20T08:36:12;14.52;;;12.82;;
19969;SDS011;10146;47.754;9.566;2023-12-20T08:38:38;14.00;;;12.23;;
19969;SDS011;10146;47.754;9.566;2023-12-20T08:41:06;16.42;;;13.95;;
19969;SDS011;10146;47.754;9.566;2023-12-20T08:43:33;15.40;;;13.73;;
19969;SDS011;10146;47.754;9.566;2023-12-20T08:46:00;15.18;;;13.60;;
19969;SDS011;10146;47.754;9.566;2023-12-20T08:48:25;18.95;;;16.95;;
19969;SDS011;10146;47.754;9.566;2023-12-20T08:50:51;21.83;;;19.58;;
19969;SDS011;10146;47.754;9.566;2023-12-20T08:53:17;68.65;;;60.38;;
19969;SDS011;10146;47.754;9.566;2023-12-20T08:55:43;77.05;;;64.38;;
19969;SDS011;10146;47.754;9.566;2023-12-20T08:58:09;51.90;;;45.28;;
19969;SDS011;10146;47.754;9.566;2023-12-20T09:00:35;25.20;;;21.42;;
19969;SDS011;10146;47.754;9.566;2023-12-20T09:03:01;14.80;;;13.25;;
19969;SDS011;10146;47.754;9.566;2023-12-20T09:05:27;22.02;;;18.23;;
19969;SDS011;10146;47.754;9.566;2023-12-20T09:07:53;14.57;;;13.02;;
19969;SDS011;10146;47.754;9.566;2023-12-20T09:10:19;14.32;;;12.70;;
19969;SDS011;10146;47.754;9.566;2023-12-20T09:12:50;12.93;;;11.68;;
19969;SDS011;10146;47.754;9.566;2023-12-20T09:15:25;12.70;;;11.48;;
19969;SDS011;10146;47.754;9.566;2023-12-20T09:17:51;12.02;;;10.75;;
19969;SDS011;10146;47.754;9.566;2023-12-20T09:20:17;12.93;;;11.63;;
19969;SDS011;10146;47.754;9.566;2023-12-20T09:22:43;12.60;;;11.30;;
19969;SDS011;10146;47.754;9.566;2023-12-20T09:25:12;12.50;;;11.20;;
19969;SDS011;10146;47.754;9.566;2023-12-20T09:27:38;10.88;;;9.77;;
19969;SDS011;10146;47.754;9.566;2023-12-20T09:30:04;11.07;;;9.98;;
19969;SDS011;10146;47.754;9.566;2023-12-20T09:32:33;10.98;;;9.88;;
19969;SDS011;10146;47.754;9.566;2023-12-20T09:34:59;11.40;;;9.90;;
19969;SDS011;10146;47.754;9.566;2023-12-20T09:37:26;10.50;;;9.50;;
19969;SDS011;10146;47.754;9.566;2023-12-20T09:39:52;11.45;;;10.18;;
19969;SDS011;10146;47.754;9.566;2023-12-20T09:42:21;10.40;;;9.40;;
19969;SDS011;10146;47.754;9.566;2023-12-20T09:44:55;10.48;;;9.48;;
19969;SDS011;10146;47.754;9.566;2023-12-20T09:47:24;10.98;;;9.93;;
19969;SDS011;10146;47.754;9.566;2023-12-20T09:49:53;10.57;;;9.57;;
19969;SDS011;10146;47.754;9.566;2023-12-20T09:52:19;9.73;;;8.73;;
19969;SDS011;10146;47.754;9.566;2023-12-20T09:54:47;9.05;;;8.10;;
19969;SDS011;10146;47.754;9.566;2023-12-20T09:57:16;8.63;;;7.72;;
19969;SDS011;10146;47.754;9.566;2023-12-20T09:59:42;8.50;;;7.70;;
19969;SDS011;10146;47.754;9.566;2023-12-20T10:02:08;7.75;;;7.05;;
19969;SDS011;10146;47.754;9.566;2023-12-20T10:04:39;6.63;;;6.00;;
19969;SDS011;10146;47.754;9.566;2023-12-20T10:07:11;5.53;;;5.03;;
19969;SDS011;10146;47.754;9.566;2023-12-20T10:09:36;5.65;;;5.15;;
19969;SDS011;10146;47.754;9.566;2023-12-20T10:12:02;6.00;;;5.40;;
19969;SDS011;10146;47.754;9.566;2023-12-20T10:14:30;6.10;;;5.60;;
19969;SDS011;10146;47.754;9.566;2023-12-20T10:17:03;5.53;;;5.03;;
19969;SDS011;10146;47.754;9.566;2023-12-20T10:19:30;5.50;;;5.00;;
19969;SDS011;10146;47.754;9.566;2023-12-20T10:21:56;5.50;;;5.00;;
19969;SDS011;10146;47.754;9.566;2023-12-20T10:24:28;5.50;;;5.00;;
19969;SDS011;10146;47.754;9.566;2023-12-20T10:27:01;6.18;;;5.07;;
19969;SDS011;10146;47.754;9.566;2023-12-20T10:29:33;6.20;;;5.57;;
19969;SDS011;10146;47.754;9.566;2023-12-20T10:32:01;6.35;;;5.75;;
19969;SDS011;10146;47.754;9.566;2023-12-20T10:34:49;5.20;;;4.80;;
19969;SDS011;10146;47.754;9.566;2023-12-20T10:37:18;5.03;;;4.53;;
19969;SDS011;10146;47.754;9.566;2023-12-20T10:39:49;4.13;;;3.78;;
19969;SDS011;10146;47.754;9.566;2023-12-20T10:42:22;4.22;;;3.83;;
19969;SDS011;10146;47.754;9.566;2023-12-20T10:44:51;4.05;;;3.72;;
19969;SDS011;10146;47.754;9.566;2023-12-20T10:47:18;3.92;;;3.63;;
19969;SDS011;10146;47.754;9.566;2023-12-20T10:49:44;4.38;;;4.07;;
19969;SDS011;10146;47.754;9.566;2023-12-20T10:52:11;3.63;;;3.33;;
19969;SDS011;10146;47.754;9.566;2023-12-20T10:54:38;3.38;;;3.13;;
19969;SDS011;10146;47.754;9.566;2023-12-20T10:57:05;2.78;;;2.58;;
19969;SDS011;10146;47.754;9.566;2023-12-20T10:59:32;3.65;;;2.80;;
19969;SDS011;10146;47.754;9.566;2023-12-20T11:01:58;2.22;;;2.03;;
19969;SDS011;10146;47.754;9.566;2023-12-20T11:04:35;3.35;;;2.85;;
19969;SDS011;10146;47.754;9.566;2023-12-20T11:07:06;2.13;;;2.00;;
19969;SDS011;10146;47.754;9.566;2023-12-20T11:09:44;1.90;;;1.80;;
19969;SDS011;10146;47.754;9.566;2023-12-20T11:12:18;1.85;;;1.75;;
19969;SDS011;10146;47.754;9.566;2023-12-20T11:14:51;2.50;;;2.00;;
19969;SDS011;10146;47.754;9.566;2023-12-20T11:17:20;1.67;;;1.50;;
19969;SDS011;10146;47.754;9.566;2023-12-20T11:22:18;1.50;;;1.40;;
19969;SDS011;10146;47.754;9.566;2023-12-20T11:24:47;1.40;;;1.30;;
19969;SDS011;10146;47.754;9.566;2023-12-20T11:27:15;1.60;;;1.50;;
19969;SDS011;10146;47.754;9.566;2023-12-20T11:29:41;1.45;;;1.35;;
19969;SDS011;10146;47.754;9.566;2023-12-20T11:32:27;1.40;;;1.30;;
19969;SDS011;10146;47.754;9.566;2023-12-20T11:35:00;1.40;;;1.30;;
19969;SDS011;10146;47.754;9.566;2023-12-20T11:37:43;1.30;;;1.20;;
19969;SDS011;10146;47.754;9.566;2023-12-20T11:40:11;1.45;;;1.35;;
19969;SDS011;10146;47.754;9.566;2023-12-20T11:42:39;1.08;;;0.93;;
19969;SDS011;10146;47.754;9.566;2023-12-20T11:45:17;1.30;;;1.20;;
19969;SDS011;10146;47.754;9.566;2023-12-20T11:47:46;6.78;;;6.28;;
19969;SDS011;10146;47.754;9.566;2023-12-20T11:50:15;1.20;;;1.10;;
19969;SDS011;10146;47.754;9.566;2023-12-20T11:52:41;6.00;;;5.50;;
19969;SDS011;10146;47.754;9.566;2023-12-20T11:55:06;6.93;;;6.30;;
19969;SDS011;10146;47.754;9.566;2023-12-20T11:57:32;1.50;;;1.40;;
19969;SDS011;10146;47.754;9.566;2023-12-20T11:59:58;0.93;;;0.93;;
19969;SDS011;10146;47.754;9.566;2023-12-20T12:02:24;1.45;;;1.35;;
19969;SDS011;10146;47.754;9.566;2023-12-20T12:04:50;2.40;;;2.20;;
19969;SDS011;10146;47.754;9.566;2023-12-20T12:07:16;1.42;;;1.33;;
19969;SDS011;10146;47.754;9.566;2023-12-20T12:09:42;3.55;;;3.25;;
19969;SDS011;10146;47.754;9.566;2023-12-20T12:12:08;1.55;;;1.30;;
19969;SDS011;10146;47.754;9.566;2023-12-20T12:14:35;3.17;;;2.88;;
19969;SDS011;10146;47.754;9.566;2023-12-20T12:17:02;8.90;;;7.97;;
19969;SDS011;10146;47.754;9.566;2023-12-20T12:19:29;0.98;;;0.98;;
19969;SDS011;10146;47.754;9.566;2023-12-20T12:22:06;0.80;;;0.80;;
19969;SDS011;10146;47.754;9.566;2023-12-20T12:24:44;0.90;;;0.90;;
19969;SDS011;10146;47.754;9.566;2023-12-20T12:27:14;2.03;;;1.10;;
19969;SDS011;10146;47.754;9.566;2023-12-20T12:29:40;0.98;;;0.98;;
19969;SDS011;10146;47.754;9.566;2023-12-20T12:32:06;2.63;;;2.03;;
19969;SDS011;10146;47.754;9.566;2023-12-20T12:34:33;0.82;;;0.82;;
19969;SDS011;10146;47.754;9.566;2023-12-20T12:37:00;1.73;;;1.63;;
19969;SDS011;10146;47.754;9.566;2023-12-20T12:39:26;6.30;;;5.38;;
19969;SDS011;10146;47.754;9.566;2023-12-20T12:41:52;1.00;;;0.90;;
19969;SDS011;10146;47.754;9.566;2023-12-20T12:44:18;1.48;;;1.30;;
19969;SDS011;10146;47.754;9.566;2023-12-20T12:46:44;7.28;;;4.75;;
19969;SDS011;10146;47.754;9.566;2023-12-20T12:49:11;1.58;;;1.25;;
19969;SDS011;10146;47.754;9.566;2023-12-20T12:51:36;1.40;;;0.90;;
19969;SDS011;10146;47.754;9.566;2023-12-20T12:54:02;2.05;;;1.85;;
19969;SDS011;10146;47.754;9.566;2023-12-20T12:56:28;1.20;;;1.10;;
19969;SDS011;10146;47.754;9.566;2023-12-20T12:58:54;1.50;;;1.40;;
19969;SDS011;10146;47.754;9.566;2023-12-20T13:01:20;0.90;;;0.90;;
19969;SDS011;10146;47.754;9.566;2023-12-20T13:03:45;0.70;;;0.70;;
19969;SDS011;10146;47.754;9.566;2023-12-20T13:06:12;0.88;;;0.88;;
19969;SDS011;10146;47.754;9.566;2023-12-20T13:08:38;1.05;;;1.05;;
19969;SDS011;10146;47.754;9.566;2023-12-20T13:11:04;1.15;;;1.10;;
19969;SDS011;10146;47.754;9.566;2023-12-20T13:13:30;1.15;;;1.00;;
19969;SDS011;10146;47.754;9.566;2023-12-20T13:15:56;1.00;;;1.00;;
19969;SDS011;10146;47.754;9.566;2023-12-20T13:18:25;0.70;;;0.70;;
19969;SDS011;10146;47.754;9.566;2023-12-20T13:20:50;0.70;;;0.70;;
19969;SDS011;10146;47.754;9.566;2023-12-20T13:23:16;0.60;;;0.60;;
19969;SDS011;10146;47.754;9.566;2023-12-20T13:25:43;0.52;;;0.52;;
19969;SDS011;10146;47.754;9.566;2023-12-20T13:28:10;0.70;;;0.70;;
19969;SDS011;10146;47.754;9.566;2023-12-20T13:30:36;0.60;;;0.60;;
19969;SDS011;10146;47.754;9.566;2023-12-20T13:33:02;0.60;;;0.60;;
19969;SDS011;10146;47.754;9.566;2023-12-20T13:35:27;0.60;;;0.60;;
19969;SDS011;10146;47.754;9.566;2023-12-20T13:37:53;0.68;;;0.57;;
19969;SDS011;10146;47.754;9.566;2023-12-20T13:40:22;0.55;;;0.50;;
19969;SDS011;10146;47.754;9.566;2023-12-20T13:42:47;0.70;;;0.70;;
19969;SDS011;10146;47.754;9.566;2023-12-20T13:45:13;0.68;;;0.60;;
19969;SDS011;10146;47.754;9.566;2023-12-20T13:47:39;0.93;;;0.60;;
19969;SDS011;10146;47.754;9.566;2023-12-20T13:50:04;3.80;;;3.13;;
19969;SDS011;10146;47.754;9.566;2023-12-20T13:52:30;0.68;;;0.60;;
19969;SDS011;10146;47.754;9.566;2023-12-20T13:54:59;5.72;;;5.22;;
19969;SDS011;10146;47.754;9.566;2023-12-20T13:57:24;0.77;;;0.77;;
19969;SDS011;10146;47.754;9.566;2023-12-20T13:59:50;1.17;;;0.70;;
19969;SDS011;10146;47.754;9.566;2023-12-20T14:02:15;0.65;;;0.65;;
19969;SDS011;10146;47.754;9.566;2023-12-20T14:04:41;1.05;;;0.60;;
19969;SDS011;10146;47.754;9.566;2023-12-20T14:07:07;0.60;;;0.60;;
19969;SDS011;10146;47.754;9.566;2023-12-20T14:09:34;8.15;;;7.32;;
19969;SDS011;10146;47.754;9.566;2023-12-20T14:12:00;0.90;;;0.70;;
19969;SDS011;10146;47.754;9.566;2023-12-20T14:14:25;0.68;;;0.68;;
19969;SDS011;10146;47.754;9.566;2023-12-20T14:16:51;1.23;;;1.00;;
19969;SDS011;10146;47.754;9.566;2023-12-20T14:19:16;1.85;;;1.10;;
19969;SDS011;10146;47.754;9.566;2023-12-20T14:21:42;1.25;;;1.13;;
19969;SDS011;10146;47.754;9.566;2023-12-20T14:24:10;1.20;;;1.10;;
19969;SDS011;10146;47.754;9.566;2023-12-20T14:26:40;1.17;;;1.10;;
19969;SDS011;10146;47.754;9.566;2023-12-20T14:29:06;2.03;;;1.70;;
19969;SDS011;10146;47.754;9.566;2023-12-20T14:31:32;1.75;;;1.60;;
19969;SDS011;10146;47.754;9.566;2023-12-20T14:34:01;5.75;;;5.18;;
19969;SDS011;10146;47.754;9.566;2023-12-20T14:36:28;1.63;;;1.52;;